sensor_id;sensor_type;location;lat;lon;timestamp;temperature;humidity
16313;DHT22;8265;52.622;13.296;2023-06-22T00:02:43;16.90;92.80
16313;DHT22;8265;52.622;13.296;2023-06-22T00:08:04;16.80;92.90
16313;DHT22;8265;52.622;13.296;2023-06-22T00:13:25;16.80;92.80
16313;DHT22;8265;52.622;13.296;2023-06-22T00:18:46;16.70;92.60
16313;DHT22;8265;52.622;13.296;2023-06-22T00:24:07;16.60;92.80
16313;DHT22;8265;52.622;13.296;2023-06-22T00:29:28;16.60;92.50
16313;DHT22;8265;52.622;13.296;2023-06-22T00:34:49;16.60;92.40
16313;DHT22;8265;52.622;13.296;2023-06-22T00:40:10;16.60;92.60
16313;DHT22;8265;52.622;13.296;2023-06-22T00:45:31;16.50;92.90
16313;DHT22;8265;52.622;13.296;2023-06-22T00:50:52;16.40;93.10
16313;DHT22;8265;52.622;13.296;2023-06-22T00:56:13;16.40;92.90
16313;DHT22;8265;52.622;13.296;2023-06-22T01:01:34;16.30;93.30
16313;DHT22;8265;52.622;13.296;2023-06-22T01:06:58;16.20;93.30
16313;DHT22;8265;52.622;13.296;2023-06-22T01:12:16;16.10;93.50
16313;DHT22;8265;52.622;13.296;2023-06-22T01:17:37;16.10;93.40
16313;DHT22;8265;52.622;13.296;2023-06-22T01:28:51;16.00;93.70
16313;DHT22;8265;52.622;13.296;2023-06-22T01:33:41;16.00;94.10
16313;DHT22;8265;52.622;13.296;2023-06-22T01:39:01;16.00;93.80
16313;DHT22;8265;52.622;13.296;2023-06-22T01:44:22;16.10;92.90
16313;DHT22;8265;52.622;13.296;2023-06-22T01:49:43;16.00;93.20
16313;DHT22;8265;52.622;13.296;2023-06-22T01:55:04;15.80;93.80
16313;DHT22;8265;52.622;13.296;2023-06-22T02:00:25;15.80;93.80
16313;DHT22;8265;52.622;13.296;2023-06-22T02:05:48;15.80;94.00
16313;DHT22;8265;52.622;13.296;2023-06-22T02:11:08;15.70;94.30
16313;DHT22;8265;52.622;13.296;2023-06-22T02:16:28;15.60;94.30
16313;DHT22;8265;52.622;13.296;2023-06-22T02:21:49;15.80;94.70
16313;DHT22;8265;52.622;13.296;2023-06-22T02:27:10;15.80;94.70
16313;DHT22;8265;52.622;13.296;2023-06-22T02:32:31;15.90;94.40
16313;DHT22;8265;52.622;13.296;2023-06-22T02:37:52;15.90;94.10
16313;DHT22;8265;52.622;13.296;2023-06-22T02:43:13;15.80;93.90
16313;DHT22;8265;52.622;13.296;2023-06-22T02:48:34;15.80;94.20
16313;DHT22;8265;52.622;13.296;2023-06-22T02:53:55;16.00;93.20
16313;DHT22;8265;52.622;13.296;2023-06-22T02:59:16;15.90;93.70
16313;DHT22;8265;52.622;13.296;2023-06-22T03:04:37;15.80;94.00
16313;DHT22;8265;52.622;13.296;2023-06-22T03:09:58;15.90;94.30
16313;DHT22;8265;52.622;13.296;2023-06-22T03:15:19;16.00;93.80
16313;DHT22;8265;52.622;13.296;2023-06-22T03:20:40;16.10;94.00
16313;DHT22;8265;52.622;13.296;2023-06-22T03:26:01;16.10;93.80
16313;DHT22;8265;52.622;13.296;2023-06-22T03:31:22;16.10;94.30
16313;DHT22;8265;52.622;13.296;2023-06-22T03:36:43;16.10;94.40
16313;DHT22;8265;52.622;13.296;2023-06-22T03:42:04;16.10;94.30
16313;DHT22;8265;52.622;13.296;2023-06-22T03:47:25;16.30;93.90
16313;DHT22;8265;52.622;13.296;2023-06-22T03:52:46;16.50;93.10
16313;DHT22;8265;52.622;13.296;2023-06-22T03:58:07;16.60;92.70
16313;DHT22;8265;52.622;13.296;2023-06-22T04:03:28;16.70;92.90
16313;DHT22;8265;52.622;13.296;2023-06-22T04:08:49;16.80;92.70
16313;DHT22;8265;52.622;13.296;2023-06-22T04:14:10;17.00;91.70
16313;DHT22;8265;52.622;13.296;2023-06-22T04:19:31;17.00;91.90
16313;DHT22;8265;52.622;13.296;2023-06-22T04:24:52;17.20;91.30
16313;DHT22;8265;52.622;13.296;2023-06-22T04:30:13;17.40;90.70
16313;DHT22;8265;52.622;13.296;2023-06-22T04:35:34;17.50;90.70
16313;DHT22;8265;52.622;13.296;2023-06-22T04:40:55;17.60;90.00
16313;DHT22;8265;52.622;13.296;2023-06-22T04:46:16;17.90;89.20
16313;DHT22;8265;52.622;13.296;2023-06-22T04:51:38;18.00;88.80
16313;DHT22;8265;52.622;13.296;2023-06-22T04:57:01;18.20;88.10
16313;DHT22;8265;52.622;13.296;2023-06-22T05:02:19;18.40;87.00
16313;DHT22;8265;52.622;13.296;2023-06-22T05:07:43;18.80;85.60
16313;DHT22;8265;52.622;13.296;2023-06-22T05:13:01;19.40;84.00
16313;DHT22;8265;52.622;13.296;2023-06-22T05:18:22;20.00;81.30
16313;DHT22;8265;52.622;13.296;2023-06-22T05:23:43;20.30;79.20
16313;DHT22;8265;52.622;13.296;2023-06-22T05:29:04;20.70;78.70
16313;DHT22;8265;52.622;13.296;2023-06-22T05:34:25;21.10;76.20
16313;DHT22;8265;52.622;13.296;2023-06-22T05:39:46;21.00;75.50
16313;DHT22;8265;52.622;13.296;2023-06-22T05:45:07;20.80;76.20
16313;DHT22;8265;52.622;13.296;2023-06-22T05:50:28;20.60;76.90
16313;DHT22;8265;52.622;13.296;2023-06-22T05:55:49;20.70;76.10
16313;DHT22;8265;52.622;13.296;2023-06-22T06:01:10;20.70;76.20
16313;DHT22;8265;52.622;13.296;2023-06-22T06:06:31;20.70;74.90
16313;DHT22;8265;52.622;13.296;2023-06-22T06:11:52;20.90;74.30
16313;DHT22;8265;52.622;13.296;2023-06-22T06:17:13;21.00;73.80
16313;DHT22;8265;52.622;13.296;2023-06-22T06:22:34;21.10;72.50
16313;DHT22;8265;52.622;13.296;2023-06-22T06:27:55;21.10;68.30
16313;DHT22;8265;52.622;13.296;2023-06-22T06:33:16;21.30;67.50
16313;DHT22;8265;52.622;13.296;2023-06-22T06:38:37;21.40;67.80
16313;DHT22;8265;52.622;13.296;2023-06-22T06:43:58;21.70;66.20
16313;DHT22;8265;52.622;13.296;2023-06-22T06:49:19;22.00;66.10
16313;DHT22;8265;52.622;13.296;2023-06-22T06:54:40;22.00;65.40
16313;DHT22;8265;52.622;13.296;2023-06-22T07:00:01;22.20;65.40
16313;DHT22;8265;52.622;13.296;2023-06-22T07:05:22;22.30;64.80
16313;DHT22;8265;52.622;13.296;2023-06-22T07:10:43;22.50;66.50
16313;DHT22;8265;52.622;13.296;2023-06-22T07:16:04;22.60;64.50
16313;DHT22;8265;52.622;13.296;2023-06-22T07:21:25;22.80;62.50
16313;DHT22;8265;52.622;13.296;2023-06-22T07:26:49;22.90;62.80
16313;DHT22;8265;52.622;13.296;2023-06-22T07:32:07;22.90;62.50
16313;DHT22;8265;52.622;13.296;2023-06-22T07:37:28;22.90;62.30
16313;DHT22;8265;52.622;13.296;2023-06-22T07:42:49;22.90;62.80
16313;DHT22;8265;52.622;13.296;2023-06-22T07:48:10;23.20;62.10
16313;DHT22;8265;52.622;13.296;2023-06-22T07:53:31;23.40;62.10
16313;DHT22;8265;52.622;13.296;2023-06-22T07:58:52;23.90;62.20
16313;DHT22;8265;52.622;13.296;2023-06-22T08:04:13;24.40;60.00
16313;DHT22;8265;52.622;13.296;2023-06-22T08:09:34;24.80;57.80
16313;DHT22;8265;52.622;13.296;2023-06-22T08:14:55;25.30;55.90
16313;DHT22;8265;52.622;13.296;2023-06-22T08:20:16;25.40;56.70
16313;DHT22;8265;52.622;13.296;2023-06-22T08:25:37;25.70;55.50
16313;DHT22;8265;52.622;13.296;2023-06-22T08:30:57;25.60;54.80
16313;DHT22;8265;52.622;13.296;2023-06-22T08:36:18;25.80;54.30
16313;DHT22;8265;52.622;13.296;2023-06-22T08:41:40;25.70;53.40
16313;DHT22;8265;52.622;13.296;2023-06-22T08:47:00;25.60;55.70
16313;DHT22;8265;52.622;13.296;2023-06-22T08:52:22;25.40;53.90
16313;DHT22;8265;52.622;13.296;2023-06-22T08:57:42;25.60;53.50
16313;DHT22;8265;52.622;13.296;2023-06-22T09:03:03;26.40;52.10
16313;DHT22;8265;52.622;13.296;2023-06-22T09:08:24;26.40;53.10
16313;DHT22;8265;52.622;13.296;2023-06-22T09:13:45;26.90;52.00
16313;DHT22;8265;52.622;13.296;2023-06-22T09:19:06;27.10;49.80
16313;DHT22;8265;52.622;13.296;2023-06-22T09:24:27;27.10;50.90
16313;DHT22;8265;52.622;13.296;2023-06-22T09:29:49;27.20;49.60
16313;DHT22;8265;52.622;13.296;2023-06-22T09:35:09;27.40;48.50
16313;DHT22;8265;52.622;13.296;2023-06-22T09:40:30;27.50;48.20
16313;DHT22;8265;52.622;13.296;2023-06-22T09:45:51;27.80;47.50
16313;DHT22;8265;52.622;13.296;2023-06-22T09:51:12;28.10;47.60
16313;DHT22;8265;52.622;13.296;2023-06-22T09:56:33;28.50;45.20
16313;DHT22;8265;52.622;13.296;2023-06-22T10:01:54;28.60;45.90
16313;DHT22;8265;52.622;13.296;2023-06-22T10:07:15;28.90;44.80
16313;DHT22;8265;52.622;13.296;2023-06-22T10:12:40;28.90;46.50
16313;DHT22;8265;52.622;13.296;2023-06-22T10:17:57;28.70;45.90
16313;DHT22;8265;52.622;13.296;2023-06-22T10:23:21;28.50;45.70
16313;DHT22;8265;52.622;13.296;2023-06-22T10:28:39;28.10;47.70
16313;DHT22;8265;52.622;13.296;2023-06-22T10:34:00;28.10;46.30
16313;DHT22;8265;52.622;13.296;2023-06-22T10:39:21;28.10;48.80
16313;DHT22;8265;52.622;13.296;2023-06-22T10:44:42;27.80;47.20
16313;DHT22;8265;52.622;13.296;2023-06-22T10:50:04;27.90;49.00
16313;DHT22;8265;52.622;13.296;2023-06-22T10:55:24;28.00;48.50
16313;DHT22;8265;52.622;13.296;2023-06-22T11:00:45;28.00;48.00
16313;DHT22;8265;52.622;13.296;2023-06-22T11:06:06;28.00;48.10
16313;DHT22;8265;52.622;13.296;2023-06-22T11:11:27;27.90;48.70
16313;DHT22;8265;52.622;13.296;2023-06-22T11:16:48;28.10;48.10
16313;DHT22;8265;52.622;13.296;2023-06-22T11:22:09;28.40;47.30
16313;DHT22;8265;52.622;13.296;2023-06-22T11:27:30;28.10;48.80
16313;DHT22;8265;52.622;13.296;2023-06-22T11:32:51;28.20;49.50
16313;DHT22;8265;52.622;13.296;2023-06-22T11:38:12;29.00;47.80
16313;DHT22;8265;52.622;13.296;2023-06-22T11:43:33;29.80;44.60
16313;DHT22;8265;52.622;13.296;2023-06-22T11:48:54;29.50;44.70
16313;DHT22;8265;52.622;13.296;2023-06-22T11:54:15;30.00;43.30
16313;DHT22;8265;52.622;13.296;2023-06-22T11:59:36;30.60;44.30
16313;DHT22;8265;52.622;13.296;2023-06-22T12:04:57;30.50;45.40
16313;DHT22;8265;52.622;13.296;2023-06-22T12:10:18;30.00;45.00
16313;DHT22;8265;52.622;13.296;2023-06-22T12:15:39;29.90;43.70
16313;DHT22;8265;52.622;13.296;2023-06-22T12:21:00;28.90;46.70
16313;DHT22;8265;52.622;13.296;2023-06-22T12:26:21;29.30;45.80
16313;DHT22;8265;52.622;13.296;2023-06-22T12:31:42;29.50;45.20
16313;DHT22;8265;52.622;13.296;2023-06-22T12:37:03;30.10;46.00
16313;DHT22;8265;52.622;13.296;2023-06-22T12:42:24;30.10;44.50
16313;DHT22;8265;52.622;13.296;2023-06-22T12:47:45;29.90;43.20
16313;DHT22;8265;52.622;13.296;2023-06-22T12:53:06;30.20;43.20
16313;DHT22;8265;52.622;13.296;2023-06-22T12:58:27;29.70;46.60
16313;DHT22;8265;52.622;13.296;2023-06-22T13:03:48;29.90;45.90
16313;DHT22;8265;52.622;13.296;2023-06-22T13:09:09;30.40;45.50
16313;DHT22;8265;52.622;13.296;2023-06-22T13:14:30;31.50;44.40
16313;DHT22;8265;52.622;13.296;2023-06-22T13:19:51;32.00;41.70
16313;DHT22;8265;52.622;13.296;2023-06-22T13:25:12;32.00;42.30
16313;DHT22;8265;52.622;13.296;2023-06-22T13:30:33;31.80;42.10
16313;DHT22;8265;52.622;13.296;2023-06-22T13:35:54;31.40;42.00
16313;DHT22;8265;52.622;13.296;2023-06-22T13:41:15;31.00;42.70
16313;DHT22;8265;52.622;13.296;2023-06-22T13:46:36;31.20;41.40
16313;DHT22;8265;52.622;13.296;2023-06-22T13:51:57;31.50;42.70
16313;DHT22;8265;52.622;13.296;2023-06-22T13:57:18;31.80;42.80
16313;DHT22;8265;52.622;13.296;2023-06-22T14:02:39;32.00;42.00
16313;DHT22;8265;52.622;13.296;2023-06-22T14:08:00;32.40;41.90
16313;DHT22;8265;52.622;13.296;2023-06-22T14:13:21;32.80;40.60
16313;DHT22;8265;52.622;13.296;2023-06-22T14:18:42;33.20;41.20
16313;DHT22;8265;52.622;13.296;2023-06-22T14:24:03;33.40;39.00
16313;DHT22;8265;52.622;13.296;2023-06-22T14:29:24;34.00;39.10
16313;DHT22;8265;52.622;13.296;2023-06-22T14:34:45;34.00;39.00
16313;DHT22;8265;52.622;13.296;2023-06-22T14:40:06;34.30;39.00
16313;DHT22;8265;52.622;13.296;2023-06-22T14:45:27;34.50;37.50
16313;DHT22;8265;52.622;13.296;2023-06-22T14:50:48;33.60;39.50
16313;DHT22;8265;52.622;13.296;2023-06-22T14:56:09;34.00;39.50
16313;DHT22;8265;52.622;13.296;2023-06-22T15:01:30;33.80;40.40
16313;DHT22;8265;52.622;13.296;2023-06-22T15:06:51;34.40;39.30
16313;DHT22;8265;52.622;13.296;2023-06-22T15:12:12;34.10;39.10
16313;DHT22;8265;52.622;13.296;2023-06-22T15:17:33;34.40;39.00
16313;DHT22;8265;52.622;13.296;2023-06-22T15:22:54;34.40;38.80
16313;DHT22;8265;52.622;13.296;2023-06-22T15:28:15;33.90;39.40
16313;DHT22;8265;52.622;13.296;2023-06-22T15:33:36;34.00;39.50
16313;DHT22;8265;52.622;13.296;2023-06-22T15:38:57;34.00;39.80
16313;DHT22;8265;52.622;13.296;2023-06-22T15:44:18;33.10;40.90
16313;DHT22;8265;52.622;13.296;2023-06-22T15:49:39;33.10;41.70
16313;DHT22;8265;52.622;13.296;2023-06-22T15:55:00;33.60;40.40
16313;DHT22;8265;52.622;13.296;2023-06-22T16:00:21;33.60;40.10
16313;DHT22;8265;52.622;13.296;2023-06-22T16:05:42;32.80;42.20
16313;DHT22;8265;52.622;13.296;2023-06-22T16:11:03;31.30;43.50
16313;DHT22;8265;52.622;13.296;2023-06-22T16:16:24;30.90;46.30
16313;DHT22;8265;52.622;13.296;2023-06-22T16:21:45;31.10;44.30
16313;DHT22;8265;52.622;13.296;2023-06-22T16:27:06;30.60;43.70
16313;DHT22;8265;52.622;13.296;2023-06-22T16:32:27;30.00;47.90
16313;DHT22;8265;52.622;13.296;2023-06-22T16:37:48;31.60;43.50
16313;DHT22;8265;52.622;13.296;2023-06-22T16:43:09;32.70;42.30
16313;DHT22;8265;52.622;13.296;2023-06-22T16:48:30;32.50;41.70
16313;DHT22;8265;52.622;13.296;2023-06-22T16:53:54;31.00;44.50
16313;DHT22;8265;52.622;13.296;2023-06-22T16:59:12;29.60;47.00
16313;DHT22;8265;52.622;13.296;2023-06-22T17:04:33;29.10;46.80
16313;DHT22;8265;52.622;13.296;2023-06-22T17:09:54;28.70;50.00
16313;DHT22;8265;52.622;13.296;2023-06-22T17:15:15;28.70;49.30
16313;DHT22;8265;52.622;13.296;2023-06-22T17:20:36;28.70;49.30
16313;DHT22;8265;52.622;13.296;2023-06-22T17:25:57;28.50;49.80
16313;DHT22;8265;52.622;13.296;2023-06-22T17:31:18;28.20;49.60
16313;DHT22;8265;52.622;13.296;2023-06-22T17:36:39;27.80;51.60
16313;DHT22;8265;52.622;13.296;2023-06-22T17:42:00;27.50;51.50
16313;DHT22;8265;52.622;13.296;2023-06-22T17:47:24;27.10;51.20
16313;DHT22;8265;52.622;13.296;2023-06-22T17:52:48;26.80;51.40
16313;DHT22;8265;52.622;13.296;2023-06-22T17:58:03;26.60;52.00
16313;DHT22;8265;52.622;13.296;2023-06-22T18:03:24;26.50;52.80
16313;DHT22;8265;52.622;13.296;2023-06-22T18:08:45;26.20;52.70
16313;DHT22;8265;52.622;13.296;2023-06-22T18:14:06;26.00;54.00
16313;DHT22;8265;52.622;13.296;2023-06-22T18:19:27;25.90;54.90
16313;DHT22;8265;52.622;13.296;2023-06-22T18:24:51;25.60;53.70
16313;DHT22;8265;52.622;13.296;2023-06-22T18:30:15;25.40;55.30
16313;DHT22;8265;52.622;13.296;2023-06-22T18:35:30;25.20;56.90
16313;DHT22;8265;52.622;13.296;2023-06-22T18:40:51;25.00;55.10
16313;DHT22;8265;52.622;13.296;2023-06-22T18:46:31;25.00;55.70
16313;DHT22;8265;52.622;13.296;2023-06-22T18:56:54;24.70;56.50
16313;DHT22;8265;52.622;13.296;2023-06-22T19:02:16;24.70;56.10
16313;DHT22;8265;52.622;13.296;2023-06-22T19:12:58;24.40;54.90
16313;DHT22;8265;52.622;13.296;2023-06-22T19:18:25;24.20;56.00
16313;DHT22;8265;52.622;13.296;2023-06-22T19:23:42;24.20;55.40
16313;DHT22;8265;52.622;13.296;2023-06-22T19:29:00;24.20;57.60
16313;DHT22;8265;52.622;13.296;2023-06-22T19:34:21;24.10;56.70
16313;DHT22;8265;52.622;13.296;2023-06-22T19:39:42;24.00;56.50
16313;DHT22;8265;52.622;13.296;2023-06-22T19:45:03;23.90;56.90
16313;DHT22;8265;52.622;13.296;2023-06-22T19:50:24;23.80;57.30
16313;DHT22;8265;52.622;13.296;2023-06-22T19:55:45;23.90;57.40
16313;DHT22;8265;52.622;13.296;2023-06-22T20:01:06;23.90;56.10
16313;DHT22;8265;52.622;13.296;2023-06-22T20:06:27;23.80;56.70
16313;DHT22;8265;52.622;13.296;2023-06-22T20:11:48;23.70;57.00
16313;DHT22;8265;52.622;13.296;2023-06-22T20:17:09;23.60;57.90
16313;DHT22;8265;52.622;13.296;2023-06-22T20:22:30;23.10;59.40
16313;DHT22;8265;52.622;13.296;2023-06-22T20:27:51;22.80;60.90
16313;DHT22;8265;52.622;13.296;2023-06-22T20:33:15;22.60;63.20
16313;DHT22;8265;52.622;13.296;2023-06-22T20:38:33;22.70;62.50
16313;DHT22;8265;52.622;13.296;2023-06-22T20:43:54;22.60;64.20
16313;DHT22;8265;52.622;13.296;2023-06-22T20:49:15;21.70;71.80
16313;DHT22;8265;52.622;13.296;2023-06-22T20:54:36;20.00;82.50
16313;DHT22;8265;52.622;13.296;2023-06-22T20:59:57;19.50;90.30
16313;DHT22;8265;52.622;13.296;2023-06-22T21:05:21;19.10;90.20
16313;DHT22;8265;52.622;13.296;2023-06-22T21:10:39;18.80;91.60
16313;DHT22;8265;52.622;13.296;2023-06-22T21:16:00;18.40;93.30
16313;DHT22;8265;52.622;13.296;2023-06-22T21:21:21;18.30;94.70
16313;DHT22;8265;52.622;13.296;2023-06-22T21:26:42;18.30;95.50
16313;DHT22;8265;52.622;13.296;2023-06-22T21:32:03;18.20;95.70
16313;DHT22;8265;52.622;13.296;2023-06-22T21:37:24;18.30;96.40
16313;DHT22;8265;52.622;13.296;2023-06-22T21:42:47;18.30;96.50
16313;DHT22;8265;52.622;13.296;2023-06-22T21:48:06;18.20;96.30
16313;DHT22;8265;52.622;13.296;2023-06-22T21:53:26;18.10;96.10
16313;DHT22;8265;52.622;13.296;2023-06-22T21:58:47;18.10;95.80
16313;DHT22;8265;52.622;13.296;2023-06-22T22:04:09;18.10;96.20
16313;DHT22;8265;52.622;13.296;2023-06-22T22:09:30;18.00;96.50
16313;DHT22;8265;52.622;13.296;2023-06-22T22:14:51;18.00;96.80
16313;DHT22;8265;52.622;13.296;2023-06-22T22:20:12;18.00;97.30
16313;DHT22;8265;52.622;13.296;2023-06-22T22:25:33;18.00;97.50
16313;DHT22;8265;52.622;13.296;2023-06-22T22:30:54;18.00;97.80
16313;DHT22;8265;52.622;13.296;2023-06-22T22:36:15;18.00;97.90
16313;DHT22;8265;52.622;13.296;2023-06-22T22:41:36;17.90;97.60
16313;DHT22;8265;52.622;13.296;2023-06-22T22:46:57;17.80;97.20
16313;DHT22;8265;52.622;13.296;2023-06-22T22:52:17;17.80;96.90
16313;DHT22;8265;52.622;13.296;2023-06-22T22:57:39;17.80;97.40
16313;DHT22;8265;52.622;13.296;2023-06-22T23:03:00;17.60;96.90
16313;DHT22;8265;52.622;13.296;2023-06-22T23:08:21;17.60;96.60
16313;DHT22;8265;52.622;13.296;2023-06-22T23:13:42;17.70;97.00
16313;DHT22;8265;52.622;13.296;2023-06-22T23:19:03;17.60;96.20
16313;DHT22;8265;52.622;13.296;2023-06-22T23:24:24;17.50;96.50
16313;DHT22;8265;52.622;13.296;2023-06-22T23:29:45;17.40;95.30
16313;DHT22;8265;52.622;13.296;2023-06-22T23:35:06;17.10;95.20
16313;DHT22;8265;52.622;13.296;2023-06-22T23:40:27;17.00;95.70
16313;DHT22;8265;52.622;13.296;2023-06-22T23:45:48;17.00;94.70
16313;DHT22;8265;52.622;13.296;2023-06-22T23:51:09;16.80;94.90
16313;DHT22;8265;52.622;13.296;2023-06-22T23:56:30;16.70;95.40
